Time;durP1;ratioP1;P1;durP2;ratioP2;P2;SDS_P1;SDS_P2;PMS_P1;PMS_P2;Temp;Humidity;BMP_temperature;BMP_pressure;BME280_temperature;BME280_humidity;BME280_pressure;Samples;Min_cycle;Max_cycle;Signal;HPM_P1;HPM_P2
2021/03/07 00:00:26;;;;;;;43.93;21.57;;;;;;;;;;4327682;33;20540;-54
2021/03/07 00:02:53;;;;;;;36.57;20.53;;;;;;;;;;4326791;33;20255;-54
2021/03/07 00:05:19;;;;;;;43.07;25.13;;;;;;;;;;4324859;33;20247;-54
2021/03/07 00:07:45;;;;;;;43.30;24.53;;;;;;;;;;4326000;33;20283;-54
2021/03/07 00:10:13;;;;;;;37.27;21.33;;;;;;;;;;4326762;33;20241;-54
2021/03/07 00:12:38;;;;;;;32.50;18.00;;;;;;;;;;4327015;33;20783;-54
2021/03/07 00:15:06;;;;;;;40.70;20.47;;;;;;;;;;4324739;33;20317;-56
2021/03/07 00:17:32;;;;;;;32.27;19.50;;;;;;;;;;4325278;33;20318;-54
2021/03/07 00:19:58;;;;;;;36.43;18.73;;;;;;;;;;4326743;33;20222;-53
2021/03/07 00:22:24;;;;;;;29.23;16.30;;;;;;;;;;4338678;33;20760;-53
2021/03/07 00:24:49;;;;;;;28.63;16.33;;;;;;;;;;4322335;33;20285;-53
2021/03/07 00:27:14;;;;;;;23.60;15.77;;;;;;;;;;4326343;33;20600;-53
2021/03/07 00:29:41;;;;;;;26.67;15.87;;;;;;;;;;4322341;33;20298;-53
2021/03/07 00:32:06;;;;;;;28.03;15.87;;;;;;;;;;4328174;33;20337;-53
2021/03/07 00:34:32;;;;;;;29.13;16.27;;;;;;;;;;4321430;33;20781;-53
2021/03/07 00:36:57;;;;;;;35.93;18.50;;;;;;;;;;4323829;33;20358;-54
2021/03/07 00:39:23;;;;;;;36.40;20.27;;;;;;;;;;4323825;33;20258;-55
2021/03/07 00:41:48;;;;;;;33.53;17.63;;;;;;;;;;4327036;33;20321;-53
2021/03/07 00:44:15;;;;;;;32.67;17.53;;;;;;;;;;4321908;33;20685;-53
2021/03/07 00:46:43;;;;;;;33.60;19.77;;;;;;;;;;4326743;33;20638;-53
2021/03/07 00:49:09;;;;;;;35.23;18.37;;;;;;;;;;4324166;33;20340;-53
2021/03/07 00:51:35;;;;;;;33.63;18.07;;;;;;;;;;4316322;33;20706;-61
2021/03/07 00:54:01;;;;;;;32.57;17.33;;;;;;;;;;4320566;33;20427;-61
2021/03/07 00:56:26;;;;;;;29.27;16.57;;;;;;;;;;4327049;33;20311;-60
2021/03/07 00:58:52;;;;;;;22.70;15.63;;;;;;;;;;4323942;33;20310;-61
2021/03/07 01:01:17;;;;;;;27.20;16.03;;;;;;;;;;4324819;33;20352;-62
2021/03/07 01:03:43;;;;;;;25.20;13.77;;;;;;;;;;4323988;33;20255;-62
2021/03/07 01:06:09;;;;;;;24.23;14.23;;;;;;;;;;4320163;33;20355;-62
2021/03/07 01:08:35;;;;;;;30.03;15.00;;;;;;;;;;4314143;33;20407;-61
2021/03/07 01:11:00;;;;;;;25.87;12.57;;;;;;;;;;4326061;33;20704;-61
2021/03/07 01:13:26;;;;;;;24.03;12.10;;;;;;;;;;4324906;33;20799;-62
2021/03/07 01:15:52;;;;;;;20.87;10.37;;;;;;;;;;4312283;33;20337;-61
2021/03/07 01:18:17;;;;;;;22.33;12.13;;;;;;;;;;4325348;33;20235;-61
2021/03/07 01:20:44;;;;;;;26.13;13.23;;;;;;;;;;4323611;33;20245;-62
2021/03/07 01:23:11;;;;;;;20.23;12.53;;;;;;;;;;4322423;33;20321;-61
2021/03/07 01:25:37;;;;;;;27.10;14.90;;;;;;;;;;4330201;33;20701;-61
2021/03/07 01:28:04;;;;;;;24.67;13.60;;;;;;;;;;4325921;33;20262;-61
2021/03/07 01:30:32;;;;;;;28.83;15.47;;;;;;;;;;4324559;33;20244;-61
2021/03/07 01:32:57;;;;;;;29.07;13.83;;;;;;;;;;4346474;32;20460;-61
2021/03/07 01:35:23;;;;;;;27.10;13.47;;;;;;;;;;4323448;33;20278;-61
2021/03/07 01:37:49;;;;;;;20.10;13.10;;;;;;;;;;4324365;33;20365;-61
2021/03/07 01:40:21;;;;;;;26.60;13.87;;;;;;;;;;4325058;33;20298;-61
2021/03/07 01:42:52;;;;;;;27.70;14.77;;;;;;;;;;4321471;33;20195;-62
2021/03/07 01:45:22;;;;;;;29.47;15.47;;;;;;;;;;4323130;33;20265;-61
2021/03/07 01:47:50;;;;;;;28.40;14.63;;;;;;;;;;4323514;33;20282;-62
2021/03/07 01:50:18;;;;;;;28.47;14.20;;;;;;;;;;4325179;33;20322;-63
2021/03/07 01:52:44;;;;;;;27.87;14.87;;;;;;;;;;4322649;33;20328;-62
2021/03/07 01:55:10;;;;;;;28.30;14.90;;;;;;;;;;4324351;33;20705;-63
2021/03/07 01:57:39;;;;;;;44.30;19.07;;;;;;;;;;4325413;33;20206;-63
2021/03/07 02:00:09;;;;;;;33.00;16.27;;;;;;;;;;4323472;33;20254;-62
2021/03/07 02:02:35;;;;;;;24.20;14.00;;;;;;;;;;4323375;33;20247;-62
2021/03/07 02:05:14;;;;;;;22.40;13.33;;;;;;;;;;4323755;33;20665;-63
2021/03/07 02:07:41;;;;;;;19.93;11.97;;;;;;;;;;4348411;32;20264;-63
2021/03/07 02:10:09;;;;;;;15.33;9.27;;;;;;;;;;4326638;33;20243;-61
2021/03/07 02:12:35;;;;;;;18.00;10.43;;;;;;;;;;4321686;33;20215;-63
2021/03/07 02:15:05;;;;;;;15.43;9.93;;;;;;;;;;4324140;33;20265;-61
2021/03/07 02:17:30;;;;;;;14.87;10.13;;;;;;;;;;4323984;33;20218;-61
2021/03/07 02:19:56;;;;;;;17.30;10.93;;;;;;;;;;4322414;33;20368;-62
2021/03/07 02:22:34;;;;;;;16.33;9.73;;;;;;;;;;4322503;33;20321;-62
2021/03/07 02:25:01;;;;;;;17.77;10.27;;;;;;;;;;4326403;33;20569;-61
2021/03/07 02:27:26;;;;;;;17.60;11.57;;;;;;;;;;4325508;33;20278;-61
2021/03/07 02:29:53;;;;;;;31.37;20.73;;;;;;;;;;4325979;33;20298;-61
2021/03/07 02:32:21;;;;;;;30.83;21.73;;;;;;;;;;4321412;33;20317;-60
2021/03/07 02:34:55;;;;;;;28.13;18.93;;;;;;;;;;4321915;33;20924;-60
2021/03/07 02:37:22;;;;;;;21.90;17.27;;;;;;;;;;4349019;32;20230;-61
2021/03/07 02:39:49;;;;;;;21.47;11.90;;;;;;;;;;4325196;33;20298;-61
2021/03/07 02:42:21;;;;;;;19.97;12.17;;;;;;;;;;4322123;33;20287;-61
2021/03/07 02:44:53;;;;;;;23.30;14.10;;;;;;;;;;4322997;33;20590;-60
2021/03/07 02:47:22;;;;;;;27.13;13.87;;;;;;;;;;4325228;33;20682;-61
2021/03/07 02:49:49;;;;;;;26.07;14.07;;;;;;;;;;4323893;33;20215;-60
2021/03/07 02:52:15;;;;;;;22.37;13.17;;;;;;;;;;4321070;33;20268;-65
2021/03/07 02:54:43;;;;;;;26.53;14.73;;;;;;;;;;4321632;33;20261;-65
2021/03/07 02:57:10;;;;;;;27.43;16.03;;;;;;;;;;4349336;33;20296;-65
2021/03/07 02:59:37;;;;;;;29.23;17.33;;;;;;;;;;4326574;33;20338;-65
2021/03/07 03:02:04;;;;;;;32.30;19.70;;;;;;;;;;4321582;33;20243;-66
2021/03/07 03:04:32;;;;;;;42.23;29.33;;;;;;;;;;4327879;33;20396;-61
2021/03/07 03:06:59;;;;;;;43.83;23.73;;;;;;;;;;4346601;32;20282;-69
2021/03/07 03:09:28;;;;;;;37.07;22.63;;;;;;;;;;4327181;33;20267;-66
2021/03/07 03:11:56;;;;;;;27.07;17.67;;;;;;;;;;4329505;33;20303;-67
2021/03/07 03:14:22;;;;;;;20.70;12.30;;;;;;;;;;4323382;33;20357;-65
2021/03/07 03:16:51;;;;;;;20.47;13.80;;;;;;;;;;4346309;32;20649;-65
2021/03/07 03:19:19;;;;;;;28.13;15.50;;;;;;;;;;4326507;33;20268;-66
2021/03/07 03:21:45;;;;;;;26.23;14.97;;;;;;;;;;4327464;33;20550;-65
2021/03/07 03:24:12;;;;;;;23.60;13.40;;;;;;;;;;4323656;33;20784;-66
2021/03/07 03:26:38;;;;;;;22.20;14.13;;;;;;;;;;4328542;33;20231;-66
2021/03/07 03:29:06;;;;;;;22.53;14.80;;;;;;;;;;4327246;33;20242;-66
2021/03/07 03:31:33;;;;;;;20.23;10.70;;;;;;;;;;4349302;32;20585;-55
2021/03/07 03:33:59;;;;;;;18.07;9.80;;;;;;;;;;4323733;33;20313;-56
2021/03/07 03:36:25;;;;;;;14.40;8.10;;;;;;;;;;4323126;33;20222;-55
2021/03/07 03:38:54;;;;;;;8.60;6.40;;;;;;;;;;4325405;33;20245;-55
2021/03/07 03:41:22;;;;;;;13.00;8.17;;;;;;;;;;4323243;33;20246;-55
2021/03/07 03:43:50;;;;;;;22.53;8.23;;;;;;;;;;4322401;33;20259;-56
2021/03/07 03:46:17;;;;;;;15.43;7.80;;;;;;;;;;4322537;33;20215;-55
2021/03/07 03:48:47;;;;;;;14.03;9.87;;;;;;;;;;4324975;33;20247;-54
2021/03/07 03:51:14;;;;;;;27.07;9.63;;;;;;;;;;4348402;32;21801;-54
2021/03/07 03:53:41;;;;;;;18.80;8.93;;;;;;;;;;4323715;33;20405;-55
2021/03/07 03:56:08;;;;;;;12.60;7.27;;;;;;;;;;4322584;33;20647;-55
2021/03/07 03:58:39;;;;;;;13.97;8.40;;;;;;;;;;4326631;33;20224;-55
2021/03/07 04:01:06;;;;;;;17.63;8.17;;;;;;;;;;4323402;33;20227;-55
2021/03/07 04:03:33;;;;;;;20.00;9.23;;;;;;;;;;4325379;33;20760;-55
2021/03/07 04:05:58;;;;;;;18.57;9.20;;;;;;;;;;4318671;33;20239;-55
2021/03/07 04:08:24;;;;;;;28.80;13.57;;;;;;;;;;4326494;33;20309;-54
2021/03/07 04:10:52;;;;;;;27.30;18.27;;;;;;;;;;4325886;33;20743;-55
2021/03/07 04:13:24;;;;;;;21.60;15.00;;;;;;;;;;4322249;33;20219;-55
2021/03/07 04:15:51;;;;;;;23.87;15.07;;;;;;;;;;4323570;33;20273;-56
2021/03/07 04:18:20;;;;;;;23.00;12.87;;;;;;;;;;4326352;33;20278;-55
2021/03/07 04:20:46;;;;;;;55.23;35.40;;;;;;;;;;4326602;33;20282;-55
2021/03/07 04:23:12;;;;;;;95.80;62.47;;;;;;;;;;4323990;33;20333;-55
2021/03/07 04:25:38;;;;;;;74.60;47.27;;;;;;;;;;4324157;33;20214;-55
2021/03/07 04:28:05;;;;;;;42.50;27.00;;;;;;;;;;4324866;33;20266;-55
2021/03/07 04:30:33;;;;;;;34.10;19.53;;;;;;;;;;4326901;33;20241;-54
2021/03/07 04:32:59;;;;;;;41.37;24.07;;;;;;;;;;4319305;33;20278;-54
2021/03/07 04:35:25;;;;;;;43.17;24.70;;;;;;;;;;4320943;33;20673;-55
2021/03/07 04:37:51;;;;;;;42.90;21.67;;;;;;;;;;4326161;33;20330;-55
2021/03/07 04:40:17;;;;;;;38.10;23.73;;;;;;;;;;4323867;33;20346;-57
2021/03/07 04:42:43;;;;;;;40.47;23.57;;;;;;;;;;4344949;32;20358;-55
2021/03/07 04:45:13;;;;;;;36.43;20.27;;;;;;;;;;4344360;32;20756;-55
2021/03/07 04:47:39;;;;;;;23.90;14.57;;;;;;;;;;4333882;33;20342;-55
2021/03/07 04:50:06;;;;;;;25.93;13.13;;;;;;;;;;4324729;33;20302;-55
2021/03/07 04:52:31;;;;;;;19.70;12.47;;;;;;;;;;4321293;33;20329;-56
2021/03/07 04:54:57;;;;;;;24.30;11.30;;;;;;;;;;4322174;33;20359;-55
2021/03/07 04:57:22;;;;;;;21.63;12.50;;;;;;;;;;4324937;33;20346;-55
2021/03/07 04:59:48;;;;;;;20.83;12.60;;;;;;;;;;4347144;32;20310;-57
2021/03/07 05:02:13;;;;;;;19.67;11.97;;;;;;;;;;4322367;33;20294;-55
2021/03/07 05:04:39;;;;;;;28.77;14.40;;;;;;;;;;4326897;33;20230;-54
2021/03/07 05:07:04;;;;;;;36.20;14.03;;;;;;;;;;4322779;33;20785;-56
2021/03/07 05:09:30;;;;;;;27.17;14.43;;;;;;;;;;4325827;33;20247;-54
2021/03/07 05:11:55;;;;;;;24.27;15.13;;;;;;;;;;4323298;33;20751;-54
2021/03/07 05:14:21;;;;;;;24.50;14.33;;;;;;;;;;4321839;33;20650;-55
2021/03/07 05:16:46;;;;;;;32.40;18.63;;;;;;;;;;4345249;32;20239;-55
2021/03/07 05:19:12;;;;;;;49.60;28.43;;;;;;;;;;4325583;33;20306;-55
2021/03/07 05:21:37;;;;;;;48.43;24.90;;;;;;;;;;4318786;33;20313;-55
2021/03/07 05:24:04;;;;;;;69.83;40.50;;;;;;;;;;4331469;33;20264;-55
2021/03/07 05:26:29;;;;;;;46.67;27.93;;;;;;;;;;4321846;33;20708;-55
2021/03/07 05:28:58;;;;;;;50.33;24.77;;;;;;;;;;4324845;33;20495;-55
2021/03/07 05:31:23;;;;;;;43.50;22.87;;;;;;;;;;4320294;33;20362;-55
2021/03/07 05:33:49;;;;;;;45.63;24.27;;;;;;;;;;4322143;33;20375;-52
2021/03/07 05:36:14;;;;;;;39.63;22.83;;;;;;;;;;4325687;33;20290;-53
2021/03/07 05:38:40;;;;;;;26.67;16.13;;;;;;;;;;4325110;33;20321;-53
2021/03/07 05:41:06;;;;;;;31.27;15.87;;;;;;;;;;4323130;33;20767;-54
2021/03/07 05:43:31;;;;;;;31.33;17.30;;;;;;;;;;4343332;32;20314;-54
2021/03/07 05:45:57;;;;;;;26.97;15.97;;;;;;;;;;4342514;32;20294;-53
2021/03/07 05:48:26;;;;;;;26.17;15.53;;;;;;;;;;4324924;33;20261;-53
2021/03/07 05:50:51;;;;;;;22.70;14.87;;;;;;;;;;4342218;32;20259;-54
2021/03/07 05:53:19;;;;;;;24.33;14.30;;;;;;;;;;4318906;33;20621;-54
2021/03/07 05:55:45;;;;;;;39.47;20.33;;;;;;;;;;4325251;33;20310;-53
2021/03/07 05:58:13;;;;;;;36.77;18.67;;;;;;;;;;4324910;33;20631;-52
2021/03/07 06:00:38;;;;;;;37.60;21.27;;;;;;;;;;4322889;33;20286;-54
2021/03/07 06:03:04;;;;;;;45.03;25.90;;;;;;;;;;4321407;33;20211;-52
2021/03/07 06:05:32;;;;;;;44.57;22.53;;;;;;;;;;4320649;33;20227;-53
2021/03/07 06:07:58;;;;;;;29.80;17.87;;;;;;;;;;4322100;33;20464;-53
2021/03/07 06:10:25;;;;;;;30.90;17.30;;;;;;;;;;4328510;33;20322;-53
2021/03/07 06:13:00;;;;;;;49.30;21.17;;;;;;;;;;4332617;33;20408;-53
2021/03/07 06:15:26;;;;;;;42.07;20.07;;;;;;;;;;4323212;33;20656;-52
2021/03/07 06:17:52;;;;;;;27.20;17.17;;;;;;;;;;4322218;33;20258;-54
2021/03/07 06:20:20;;;;;;;25.80;14.17;;;;;;;;;;4322259;33;20698;-53
2021/03/07 06:22:54;;;;;;;32.50;15.83;;;;;;;;;;4321265;33;20372;-53
2021/03/07 06:25:20;;;;;;;35.17;15.23;;;;;;;;;;4322789;33;20373;-54
2021/03/07 06:27:46;;;;;;;28.00;14.07;;;;;;;;;;4322448;33;20255;-53
2021/03/07 06:30:13;;;;;;;19.90;13.07;;;;;;;;;;4322732;33;20226;-53
2021/03/07 06:32:50;;;;;;;39.10;19.30;;;;;;;;;;4323792;33;20211;-54
2021/03/07 06:35:20;;;;;;;31.93;18.80;;;;;;;;;;4324012;33;20211;-56
2021/03/07 06:37:55;;;;;;;24.23;14.93;;;;;;;;;;4328547;33;20645;-52
2021/03/07 06:40:32;;;;;;;34.43;13.30;;;;;;;;;;4331482;33;20345;-53
2021/03/07 06:43:00;;;;;;;22.57;12.43;;;;;;;;;;4323468;33;20400;-53
2021/03/07 06:45:36;;;;;;;28.37;16.33;;;;;;;;;;4324362;33;20207;-53
2021/03/07 06:48:02;;;;;;;22.07;14.30;;;;;;;;;;4321439;33;20227;-53
2021/03/07 06:50:27;;;;;;;34.60;19.10;;;;;;;;;;4319946;33;20305;-53
2021/03/07 06:52:57;;;;;;;21.73;13.87;;;;;;;;;;4321638;33;20241;-53
2021/03/07 06:55:28;;;;;;;23.77;11.60;;;;;;;;;;4322661;33;20322;-53
2021/03/07 06:57:54;;;;;;;19.27;12.80;;;;;;;;;;4310893;33;20254;-53
2021/03/07 07:00:39;;;;;;;17.80;12.67;;;;;;;;;;4324121;33;20346;-53
2021/03/07 07:03:15;;;;;;;17.30;10.27;;;;;;;;;;4322078;33;20247;-53
2021/03/07 07:05:48;;;;;;;19.17;11.40;;;;;;;;;;4325897;33;20328;-52
2021/03/07 07:08:15;;;;;;;25.73;13.30;;;;;;;;;;4322439;33;20570;-52
2021/03/07 07:10:56;;;;;;;23.33;15.13;;;;;;;;;;4326829;33;20570;-53
2021/03/07 07:13:24;;;;;;;26.73;13.77;;;;;;;;;;4321289;33;20424;-52
2021/03/07 07:16:04;;;;;;;25.13;13.70;;;;;;;;;;4326994;33;20641;-52
2021/03/07 07:18:31;;;;;;;20.37;12.47;;;;;;;;;;4320462;33;20310;-53
2021/03/07 07:20:58;;;;;;;25.43;13.53;;;;;;;;;;4323813;33;20329;-54
2021/03/07 07:23:25;;;;;;;23.20;13.60;;;;;;;;;;4321164;33;20295;-53
2021/03/07 07:25:50;;;;;;;20.30;12.63;;;;;;;;;;4350193;32;20239;-52
2021/03/07 07:28:16;;;;;;;20.87;12.97;;;;;;;;;;4321022;33;20291;-53
2021/03/07 07:30:50;;;;;;;28.47;14.07;;;;;;;;;;4327099;33;20290;-53
2021/03/07 07:33:25;;;;;;;27.90;14.67;;;;;;;;;;4324067;33;20602;-53
2021/03/07 07:35:53;;;;;;;23.63;12.33;;;;;;;;;;4324819;33;20261;-53
2021/03/07 07:38:19;;;;;;;23.17;12.87;;;;;;;;;;4324038;33;20235;-53
2021/03/07 07:40:44;;;;;;;26.00;12.80;;;;;;;;;;4322487;32;20249;-53
2021/03/07 07:43:11;;;;;;;24.07;12.67;;;;;;;;;;4324965;33;20260;-54
2021/03/07 07:45:37;;;;;;;22.57;13.07;;;;;;;;;;4332932;33;20234;-55
2021/03/07 07:48:04;;;;;;;22.90;14.37;;;;;;;;;;4325093;33;20251;-54
2021/03/07 07:50:29;;;;;;;25.77;12.50;;;;;;;;;;4320143;33;20377;-54
2021/03/07 07:52:56;;;;;;;21.97;13.00;;;;;;;;;;4324504;33;20238;-53
2021/03/07 07:55:41;;;;;;;21.43;12.80;;;;;;;;;;4327892;33;20356;-54
2021/03/07 07:58:06;;;;;;;19.30;10.83;;;;;;;;;;4324156;33;20327;-53
2021/03/07 08:01:08;;;;;;;25.13;12.60;;;;;;;;;;4328099;33;20735;-54
2021/03/07 08:03:37;;;;;;;22.77;11.53;;;;;;;;;;4287389;33;20281;-54
2021/03/07 08:06:35;;;;;;;20.27;10.40;;;;;;;;;;4345241;32;20381;-54
2021/03/07 08:09:00;;;;;;;17.13;10.20;;;;;;;;;;4324112;33;20211;-53
2021/03/07 08:11:28;;;;;;;18.03;9.73;;;;;;;;;;4347313;32;20293;-54
2021/03/07 08:13:57;;;;;;;12.93;8.77;;;;;;;;;;4323000;33;20226;-53
2021/03/07 08:16:40;;;;;;;18.67;7.97;;;;;;;;;;4326367;33;20731;-53
2021/03/07 08:19:08;;;;;;;13.80;8.37;;;;;;;;;;4328151;33;20247;-53
2021/03/07 08:21:57;;;;;;;12.80;7.37;;;;;;;;;;4324072;33;20309;-53
2021/03/07 08:24:24;;;;;;;12.83;7.07;;;;;;;;;;4325673;33;20345;-53
2021/03/07 08:26:50;;;;;;;11.63;6.00;;;;;;;;;;4326844;33;20279;-52
2021/03/07 08:29:38;;;;;;;20.83;8.53;;;;;;;;;;4326041;33;20322;-53
2021/03/07 08:32:34;;;;;;;11.30;7.13;;;;;;;;;;4318538;33;20289;-52
2021/03/07 08:35:20;;;;;;;12.77;7.90;;;;;;;;;;4320081;33;20289;-52
2021/03/07 08:38:08;;;;;;;14.63;7.33;;;;;;;;;;4326867;33;20274;-53
2021/03/07 08:40:36;;;;;;;9.93;6.13;;;;;;;;;;4321560;33;20306;-53
2021/03/07 08:43:37;;;;;;;13.73;6.83;;;;;;;;;;4302927;33;20309;-66
2021/03/07 08:46:10;;;;;;;183.63;80.27;;;;;;;;;;4281819;33;20364;-66
2021/03/07 08:48:37;;;;;;;31.17;14.27;;;;;;;;;;4318274;33;20684;-66
2021/03/07 08:51:04;;;;;;;18.20;9.27;;;;;;;;;;4326933;33;20744;-65
2021/03/07 08:53:35;;;;;;;18.37;8.20;;;;;;;;;;4325330;33;20235;-65
2021/03/07 08:56:01;;;;;;;15.40;7.53;;;;;;;;;;4319696;33;20640;-65
2021/03/07 08:58:27;;;;;;;25.93;10.90;;;;;;;;;;4323996;33;20305;-65
2021/03/07 09:00:54;;;;;;;9.60;6.80;;;;;;;;;;4321414;33;20322;-62
2021/03/07 09:03:21;;;;;;;9.63;6.47;;;;;;;;;;4327394;33;20282;-65
2021/03/07 09:05:48;;;;;;;18.90;9.47;;;;;;;;;;4331405;33;20285;-65
2021/03/07 09:08:14;;;;;;;41.80;17.80;;;;;;;;;;4328959;33;20274;-65
2021/03/07 09:10:45;;;;;;;8.10;6.13;;;;;;;;;;4327845;33;20286;-64
2021/03/07 09:13:19;;;;;;;9.10;6.53;;;;;;;;;;4327891;33;20212;-66
2021/03/07 09:15:58;;;;;;;31.70;14.90;;;;;;;;;;4313995;33;20662;-64
2021/03/07 09:18:30;;;;;;;12.90;9.10;;;;;;;;;;4323782;33;20276;-65
2021/03/07 09:20:58;;;;;;;11.07;6.63;;;;;;;;;;4327333;33;20238;-65
2021/03/07 09:23:43;;;;;;;19.83;13.40;;;;;;;;;;4327336;33;20605;-71
2021/03/07 09:26:22;;;;;;;10.87;7.43;;;;;;;;;;4324554;33;20361;-68
2021/03/07 09:28:49;;;;;;;14.30;8.13;;;;;;;;;;4327861;33;20358;-68
2021/03/07 09:31:17;;;;;;;15.13;9.77;;;;;;;;;;4327595;33;20763;-72
2021/03/07 09:33:57;;;;;;;14.07;7.70;;;;;;;;;;4327631;33;20635;-69
2021/03/07 09:36:28;;;;;;;22.17;12.23;;;;;;;;;;4326961;33;20366;-66
2021/03/07 09:38:53;;;;;;;12.50;7.17;;;;;;;;;;4327860;33;20252;-55
2021/03/07 09:41:44;;;;;;;10.83;6.70;;;;;;;;;;4317685;33;20211;-53
2021/03/07 09:44:13;;;;;;;11.70;8.13;;;;;;;;;;4327213;33;20249;-53
2021/03/07 09:46:42;;;;;;;15.43;8.90;;;;;;;;;;4327004;33;20223;-54
2021/03/07 09:49:09;;;;;;;40.83;22.80;;;;;;;;;;4327306;33;20228;-56
2021/03/07 09:51:39;;;;;;;11.50;6.07;;;;;;;;;;4327414;33;20684;-53
2021/03/07 09:54:13;;;;;;;8.87;5.90;;;;;;;;;;4327147;33;20683;-54
2021/03/07 09:56:39;;;;;;;17.83;6.67;;;;;;;;;;4350164;32;20238;-54
2021/03/07 09:59:21;;;;;;;10.60;6.67;;;;;;;;;;4327677;33;20261;-54
2021/03/07 10:01:49;;;;;;;12.77;8.00;;;;;;;;;;4320521;33;20219;-55
2021/03/07 10:04:24;;;;;;;27.93;14.10;;;;;;;;;;4327220;33;20655;-55
2021/03/07 10:06:49;;;;;;;34.67;19.90;;;;;;;;;;4350275;32;20253;-54
2021/03/07 10:09:15;;;;;;;22.23;10.97;;;;;;;;;;4327102;33;20269;-54
2021/03/07 10:11:40;;;;;;;23.73;11.83;;;;;;;;;;4326003;33;20779;-54
2021/03/07 10:14:06;;;;;;;11.03;8.03;;;;;;;;;;4327444;33;20723;-54
2021/03/07 10:16:34;;;;;;;10.30;7.07;;;;;;;;;;4325553;33;20758;-55
2021/03/07 10:19:08;;;;;;;15.00;7.93;;;;;;;;;;4315513;33;20794;-54
2021/03/07 10:21:34;;;;;;;18.33;8.40;;;;;;;;;;4325717;33;20236;-54
2021/03/07 10:24:06;;;;;;;21.20;7.80;;;;;;;;;;4326645;33;20302;-53
2021/03/07 10:26:32;;;;;;;18.43;8.67;;;;;;;;;;4326850;33;20308;-54
2021/03/07 10:28:57;;;;;;;12.30;7.90;;;;;;;;;;4327104;33;20259;-54
2021/03/07 10:31:23;;;;;;;16.27;8.90;;;;;;;;;;4326592;33;20313;-54
2021/03/07 10:33:52;;;;;;;19.20;12.43;;;;;;;;;;4326876;33;20313;-54
2021/03/07 10:36:20;;;;;;;11.57;7.77;;;;;;;;;;4327095;33;20207;-54
2021/03/07 10:38:49;;;;;;;10.47;7.80;;;;;;;;;;4326847;33;20226;-54
2021/03/07 10:41:22;;;;;;;12.60;8.17;;;;;;;;;;4325644;33;20662;-55
2021/03/07 10:43:58;;;;;;;13.80;8.63;;;;;;;;;;4325660;33;20259;-53
2021/03/07 10:46:29;;;;;;;10.73;7.67;;;;;;;;;;4327049;33;20301;-52
2021/03/07 10:48:57;;;;;;;9.97;7.53;;;;;;;;;;4322667;33;20271;-53
2021/03/07 10:51:22;;;;;;;15.80;8.33;;;;;;;;;;4324944;33;20617;-53
2021/03/07 10:53:48;;;;;;;13.73;8.73;;;;;;;;;;4323153;33;20223;-54
2021/03/07 10:56:13;;;;;;;19.13;9.17;;;;;;;;;;4325315;33;20285;-55
2021/03/07 10:58:39;;;;;;;18.47;10.33;;;;;;;;;;4325568;33;20637;-54
2021/03/07 11:01:04;;;;;;;19.60;12.30;;;;;;;;;;4326349;33;20290;-53
2021/03/07 11:03:30;;;;;;;20.90;13.07;;;;;;;;;;4326221;33;20926;-55
2021/03/07 11:05:56;;;;;;;17.17;9.10;;;;;;;;;;4325934;33;20591;-53
2021/03/07 11:08:21;;;;;;;12.33;9.57;;;;;;;;;;4324282;33;20720;-53
2021/03/07 11:10:47;;;;;;;25.53;11.20;;;;;;;;;;4324845;33;20666;-54
2021/03/07 11:13:13;;;;;;;16.03;9.87;;;;;;;;;;4317868;33;20439;-54
2021/03/07 11:15:38;;;;;;;19.20;10.20;;;;;;;;;;4324955;33;20305;-55
2021/03/07 11:18:04;;;;;;;104.23;58.50;;;;;;;;;;4324367;33;20373;-52
2021/03/07 11:20:29;;;;;;;32.30;19.40;;;;;;;;;;4325621;33;20259;-55
2021/03/07 11:22:55;;;;;;;21.73;15.80;;;;;;;;;;4329024;33;20331;-55
2021/03/07 11:25:20;;;;;;;26.77;12.10;;;;;;;;;;4325016;33;20249;-54
2021/03/07 11:27:46;;;;;;;18.97;8.53;;;;;;;;;;4329603;33;20574;-55
2021/03/07 11:30:12;;;;;;;17.90;11.67;;;;;;;;;;4328285;33;20219;-55
2021/03/07 11:32:38;;;;;;;18.50;12.30;;;;;;;;;;4327216;33;20365;-55
2021/03/07 11:35:03;;;;;;;20.37;14.00;;;;;;;;;;4322906;33;20246;-54
2021/03/07 11:37:29;;;;;;;11.97;7.80;;;;;;;;;;4328176;33;20306;-55
2021/03/07 11:39:54;;;;;;;14.37;8.70;;;;;;;;;;4350051;32;20272;-54
2021/03/07 11:42:20;;;;;;;12.07;9.23;;;;;;;;;;4328925;33;20405;-54
2021/03/07 11:44:45;;;;;;;30.57;19.07;;;;;;;;;;4328705;33;20307;-54
2021/03/07 11:47:11;;;;;;;11.43;8.20;;;;;;;;;;4328778;33;20293;-54
2021/03/07 11:49:36;;;;;;;12.30;9.27;;;;;;;;;;4327576;33;20215;-54
2021/03/07 11:52:02;;;;;;;13.87;8.40;;;;;;;;;;4327124;33;20723;-53
2021/03/07 11:54:28;;;;;;;14.03;8.27;;;;;;;;;;4321371;33;20330;-53
2021/03/07 11:56:53;;;;;;;11.47;7.93;;;;;;;;;;4321349;33;20294;-54
2021/03/07 11:59:19;;;;;;;18.67;10.13;;;;;;;;;;4327743;33;20269;-53
2021/03/07 12:01:44;;;;;;;35.70;18.20;;;;;;;;;;4324783;33;20676;-53
2021/03/07 12:04:10;;;;;;;130.87;70.10;;;;;;;;;;4324486;33;20253;-53
2021/03/07 12:06:35;;;;;;;27.67;15.57;;;;;;;;;;4335713;32;20238;-53
2021/03/07 12:09:01;;;;;;;16.23;11.37;;;;;;;;;;4331330;33;20724;-54
2021/03/07 12:11:26;;;;;;;18.53;9.47;;;;;;;;;;4328301;33;20242;-53
2021/03/07 12:13:52;;;;;;;15.90;9.70;;;;;;;;;;4327954;33;20782;-54
2021/03/07 12:16:17;;;;;;;15.43;9.87;;;;;;;;;;4327457;33;20368;-53
2021/03/07 12:18:43;;;;;;;11.50;7.07;;;;;;;;;;4325653;33;20400;-55
2021/03/07 12:21:09;;;;;;;18.13;9.70;;;;;;;;;;4326454;33;20318;-53
2021/03/07 12:23:35;;;;;;;24.67;11.63;;;;;;;;;;4326717;33;20324;-53
2021/03/07 12:26:01;;;;;;;201.77;67.17;;;;;;;;;;4325004;33;20224;-54
2021/03/07 12:28:27;;;;;;;18.80;11.37;;;;;;;;;;4327423;33;20210;-54
2021/03/07 12:30:53;;;;;;;39.90;16.27;;;;;;;;;;4324650;33;20412;-53
2021/03/07 12:33:19;;;;;;;24.30;10.27;;;;;;;;;;4327194;33;20211;-53
2021/03/07 12:35:44;;;;;;;14.27;7.27;;;;;;;;;;4327774;33;20253;-52
2021/03/07 12:38:09;;;;;;;12.70;7.53;;;;;;;;;;4326224;33;20307;-52
2021/03/07 12:40:35;;;;;;;26.77;13.27;;;;;;;;;;4320767;33;20656;-53
2021/03/07 12:43:01;;;;;;;11.47;7.53;;;;;;;;;;4313449;33;20277;-53
2021/03/07 12:45:26;;;;;;;12.77;8.30;;;;;;;;;;4318683;33;20235;-53
2021/03/07 12:47:52;;;;;;;34.40;16.87;;;;;;;;;;4324208;33;20304;-53
2021/03/07 12:50:17;;;;;;;53.67;22.93;;;;;;;;;;4326115;33;20576;-53
2021/03/07 12:52:43;;;;;;;114.27;42.67;;;;;;;;;;4327569;33;20195;-53
2021/03/07 12:55:08;;;;;;;252.50;94.77;;;;;;;;;;4326160;33;20425;-51
2021/03/07 12:57:34;;;;;;;28.53;13.83;;;;;;;;;;4324133;33;20693;-52
2021/03/07 12:59:59;;;;;;;16.27;8.77;;;;;;;;;;4335836;33;20353;-51
2021/03/07 13:02:25;;;;;;;310.23;115.57;;;;;;;;;;4333875;33;20365;-52
2021/03/07 13:04:50;;;;;;;145.30;63.33;;;;;;;;;;4327439;33;20930;-52
2021/03/07 13:07:16;;;;;;;22.70;15.00;;;;;;;;;;4331740;33;20275;-52
2021/03/07 13:09:42;;;;;;;71.67;38.00;;;;;;;;;;4326143;33;20770;-52
2021/03/07 13:12:09;;;;;;;16.77;10.43;;;;;;;;;;4321628;33;20349;-51
2021/03/07 13:14:35;;;;;;;13.90;8.43;;;;;;;;;;4336815;32;20242;-52
2021/03/07 13:17:00;;;;;;;60.03;29.07;;;;;;;;;;4318594;33;20298;-51
2021/03/07 13:19:26;;;;;;;43.73;21.20;;;;;;;;;;4325692;33;20239;-52
2021/03/07 13:21:51;;;;;;;24.87;7.47;;;;;;;;;;4326454;33;20331;-51
2021/03/07 13:24:17;;;;;;;16.13;9.43;;;;;;;;;;4323917;33;20629;-53
2021/03/07 13:26:43;;;;;;;26.73;16.50;;;;;;;;;;4325599;33;20826;-52
2021/03/07 13:29:08;;;;;;;20.93;11.43;;;;;;;;;;4327830;33;20257;-52
2021/03/07 13:31:34;;;;;;;18.90;9.10;;;;;;;;;;4327471;33;20293;-52
2021/03/07 13:33:59;;;;;;;61.10;25.77;;;;;;;;;;4327345;33;20277;-52
2021/03/07 13:36:25;;;;;;;17.30;9.73;;;;;;;;;;4326209;33;20688;-54
2021/03/07 13:38:50;;;;;;;14.70;8.20;;;;;;;;;;4327079;33;20685;-53
2021/03/07 13:41:15;;;;;;;38.33;16.00;;;;;;;;;;4324420;33;20234;-69
2021/03/07 13:43:41;;;;;;;18.90;8.67;;;;;;;;;;4326260;33;20270;-69
2021/03/07 13:46:06;;;;;;;15.13;7.90;;;;;;;;;;4327188;33;20257;-70
2021/03/07 13:48:32;;;;;;;29.17;11.53;;;;;;;;;;4350909;32;20314;-68
2021/03/07 13:50:58;;;;;;;12.67;8.37;;;;;;;;;;4326687;33;20214;-69
2021/03/07 13:53:23;;;;;;;13.83;8.07;;;;;;;;;;4325402;33;20251;-71
2021/03/07 13:55:49;;;;;;;12.70;6.30;;;;;;;;;;4327444;33;20421;-70
2021/03/07 13:58:14;;;;;;;11.90;6.90;;;;;;;;;;4327178;33;20211;-68
2021/03/07 14:00:40;;;;;;;13.03;6.10;;;;;;;;;;4325249;33;20219;-68
2021/03/07 14:03:06;;;;;;;8.30;6.03;;;;;;;;;;4324007;33;20345;-69
2021/03/07 14:05:31;;;;;;;10.60;5.83;;;;;;;;;;4325214;33;20695;-62
2021/03/07 14:07:57;;;;;;;12.33;6.37;;;;;;;;;;4321639;33;20662;-61
2021/03/07 14:10:23;;;;;;;13.23;7.67;;;;;;;;;;4318687;33;20373;-57
2021/03/07 14:12:48;;;;;;;18.07;10.43;;;;;;;;;;4344994;32;20223;-62
2021/03/07 14:15:16;;;;;;;21.70;7.70;;;;;;;;;;4324518;33;20557;-65
2021/03/07 14:17:43;;;;;;;35.27;10.87;;;;;;;;;;4319876;33;20467;-67
2021/03/07 14:20:10;;;;;;;20.33;9.30;;;;;;;;;;4319847;33;20390;-61
2021/03/07 14:22:36;;;;;;;19.93;7.53;;;;;;;;;;4319924;33;20254;-61
2021/03/07 14:25:04;;;;;;;11.20;5.77;;;;;;;;;;4325205;33;20223;-62